Westover AFB, Massachusetts
Current Conditions -  °F | °C
As of 12:45 AM on Tuesday 27 Jan 2015 (Local Time) from KCEF Reporting Station
Light Snow Light Snow  
Wind Chill: -1°   Ceiling: 1500
Heat Index: 18°   Visibility: 2mi
Dew Point: 12°   Wind: 25mph
Humidity: 79%   Direction: 40°NE
Pressure: 29.76"   Gusts: 32mph
Location:  42.1968°N, 72.5424°W
Report Text: KCEF 270545Z AUTO 04022G28KT 2SM -SN OVC015 M08/M11 A2976 RMK AO2 VIS 2V2 1/2
Loading
Personal Weather Stations






























Interactive Weather Map New forecast layout! Learn more

10-Day Weather Forecast

Advertisements
Track Severe Weather on mobile